Time;durP1;ratioP1;P1;durP2;ratioP2;P2;SDS_P1;SDS_P2;PMS_P1;PMS_P2;Temp;Humidity;BMP_temperature;BMP_pressure;BME280_temperature;BME280_humidity;BME280_pressure;Samples;Min_cycle;Max_cycle;Signal;HPM_P1;HPM_P2
2021/11/02 00:01:42;;;;;;;36.67;17.33;;;;;;;11.34;96.94;96601.56;4963307;28;20491;-68
2021/11/02 00:04:09;;;;;;;37.78;16.55;;;;;;;11.35;97.03;96584.53;4964663;28;20050;-67
2021/11/02 00:06:36;;;;;;;36.60;15.38;;;;;;;11.38;96.76;96585.75;4963409;28;20051;-66
2021/11/02 00:09:08;;;;;;;41.65;18.35;;;;;;;11.33;96.82;96584.16;4965175;28;20065;-66
2021/11/02 00:11:35;;;;;;;35.55;16.13;;;;;;;11.39;96.38;96592.88;4964639;28;20061;-67
2021/11/02 00:14:07;;;;;;;47.05;18.40;;;;;;;11.45;96.38;96580.25;4965688;28;20058;-66
2021/11/02 00:16:34;;;;;;;38.13;18.15;;;;;;;10.89;96.75;96505.03;4963444;28;20061;-67
2021/11/02 00:19:05;;;;;;;36.78;15.52;;;;;;;11.39;96.25;96579.03;4963677;28;20583;-66
2021/11/02 00:21:36;;;;;;;47.58;17.90;;;;;;;11.08;96.29;96526.94;4964783;28;20605;-67
2021/11/02 00:24:27;;;;;;;41.92;16.23;;;;;;;10.93;96.78;96503.06;4964059;28;20058;-66
2021/11/02 00:26:54;;;;;;;41.95;18.63;;;;;;;10.78;96.75;96476.47;4964803;28;20059;-67
2021/11/02 00:29:21;;;;;;;36.53;17.83;;;;;;;11.19;97.86;96555.53;4965433;28;20077;-66
2021/11/02 00:31:47;;;;;;;43.47;18.92;;;;;;;11.19;98.08;96556.31;4964399;28;20414;-67
2021/11/02 00:34:14;;;;;;;40.92;18.67;;;;;;;11.05;98.80;96555.44;4965435;28;20065;-67
2021/11/02 00:36:41;;;;;;;43.25;18.23;;;;;;;10.89;100.00;96546.59;4964444;28;20062;-67
2021/11/02 00:39:07;;;;;;;39.35;18.02;;;;;;;10.90;99.88;96550.97;4964892;28;20055;-67
2021/11/02 00:41:35;;;;;;;45.05;19.33;;;;;;;10.81;100.00;96550.50;4963328;28;20117;-67
2021/11/02 00:44:01;;;;;;;46.15;20.20;;;;;;;10.75;100.00;96538.97;4963136;28;20065;-67
2021/11/02 00:46:34;;;;;;;49.60;20.02;;;;;;;10.54;100.00;96539.56;4965011;28;20078;-67
2021/11/02 00:49:02;;;;;;;44.33;19.95;;;;;;;10.41;100.00;96554.91;4963061;28;20059;-67
2021/11/02 00:51:29;;;;;;;43.15;19.00;;;;;;;10.23;100.00;96526.25;4964490;28;20433;-67
2021/11/02 00:53:56;;;;;;;44.97;19.55;;;;;;;10.32;100.00;96540.56;4964696;28;20077;-67
2021/11/02 00:56:23;;;;;;;49.90;20.05;;;;;;;10.27;100.00;96531.81;4963011;28;20065;-67
2021/11/02 00:58:50;;;;;;;48.15;20.63;;;;;;;10.21;100.00;96528.59;4962792;28;20541;-67
2021/11/02 01:01:17;;;;;;;50.67;21.35;;;;;;;10.20;100.00;96527.00;4962920;28;20058;-67
2021/11/02 01:03:44;;;;;;;50.28;21.52;;;;;;;10.21;100.00;96516.75;4962780;28;20903;-67
2021/11/02 01:06:10;;;;;;;47.95;20.58;;;;;;;10.22;100.00;96519.13;4964193;28;20059;-66
2021/11/02 01:08:37;;;;;;;50.55;20.90;;;;;;;10.17;100.00;96516.69;4964476;28;20080;-67
2021/11/02 01:11:04;;;;;;;50.70;20.65;;;;;;;10.02;100.00;96490.00;4963341;28;20061;-67
2021/11/02 01:13:33;;;;;;;43.97;18.70;;;;;;;10.24;100.00;96502.91;4964466;28;20089;-67
2021/11/02 01:16:00;;;;;;;48.22;19.23;;;;;;;10.20;100.00;96502.09;4965061;28;20046;-67
2021/11/02 01:18:27;;;;;;;37.63;18.00;;;;;;;10.17;100.00;96516.69;4966183;28;20065;-67
2021/11/02 01:20:54;;;;;;;39.40;17.58;;;;;;;10.04;100.00;96460.00;4967564;28;20157;-67
2021/11/02 01:23:20;;;;;;;34.88;16.42;;;;;;;10.09;100.00;96465.22;4967492;28;20057;-67
2021/11/02 01:25:47;;;;;;;40.17;17.25;;;;;;;9.95;100.00;96459.53;4967791;28;20058;-67
2021/11/02 01:28:14;;;;;;;35.75;16.30;;;;;;;10.14;100.00;96495.31;4967923;28;20085;-67
2021/11/02 01:30:41;;;;;;;36.58;15.85;;;;;;;10.28;100.00;96501.00;4967937;28;20051;-67
2021/11/02 01:33:08;;;;;;;37.55;16.42;;;;;;;9.69;100.00;96401.56;4968001;28;20082;-67
2021/11/02 01:35:35;;;;;;;36.78;15.52;;;;;;;10.29;100.00;96508.09;4966323;28;20129;-66
2021/11/02 01:38:04;;;;;;;42.20;17.02;;;;;;;7.94;100.00;96112.44;4965983;28;20438;-67
2021/11/02 01:40:31;;;;;;;36.88;15.43;;;;;;;10.46;100.00;96495.63;4967270;28;20054;-66
2021/11/02 01:42:58;;;;;;;38.05;16.38;;;;;;;10.41;100.00;96498.72;4967415;28;20065;-66
2021/11/02 01:45:27;;;;;;;34.70;16.35;;;;;;;10.55;100.00;96505.19;4967127;28;20070;-67
2021/11/02 01:47:54;;;;;;;40.78;16.65;;;;;;;10.61;98.97;96519.47;4967812;28;20490;-66
2021/11/02 01:50:21;;;;;;;40.70;17.00;;;;;;;10.55;98.20;96488.56;4967510;28;20047;-66
2021/11/02 01:52:49;;;;;;;37.50;15.90;;;;;;;10.60;99.13;96491.00;4967226;28;20051;-66
2021/11/02 01:55:17;;;;;;;41.05;18.55;;;;;;;10.03;99.82;96432.72;4965588;28;20051;-67
2021/11/02 01:57:46;;;;;;;42.08;18.58;;;;;;;10.40;100.00;96484.09;4967455;28;20062;-67
2021/11/02 02:00:15;;;;;;;41.72;17.88;;;;;;;10.53;100.00;96490.13;4966794;28;20454;-67
2021/11/02 02:03:05;;;;;;;43.25;19.00;;;;;;;10.65;100.00;96487.06;4967259;28;20055;-67
2021/11/02 02:05:55;;;;;;;43.28;17.48;;;;;;;10.67;99.72;96491.03;4966981;28;20237;-67
2021/11/02 02:08:34;;;;;;;41.42;17.83;;;;;;;10.54;99.28;96448.19;4966040;28;20059;-67
2021/11/02 02:11:32;;;;;;;43.45;18.33;;;;;;;10.70;98.98;96481.94;4965885;28;20047;-68
2021/11/02 02:14:37;;;;;;;40.97;17.98;;;;;;;10.72;99.42;96480.78;4946197;28;20508;-68
2021/11/02 02:17:12;;;;;;;40.92;19.30;;;;;;;10.77;98.82;96477.63;4947335;28;20516;-68
2021/11/02 02:20:01;;;;;;;48.42;19.80;;;;;;;10.32;97.73;96413.22;4946001;29;20066;-67
2021/11/02 02:23:16;;;;;;;42.33;18.95;;;;;;;10.77;97.91;96472.91;4947623;28;20051;-68
2021/11/02 02:25:53;;;;;;;40.22;16.95;;;;;;;10.66;98.75;96483.91;4946790;28;20478;-67
2021/11/02 02:28:21;;;;;;;41.13;16.58;;;;;;;10.59;98.84;96456.16;4947312;28;20069;-67
2021/11/02 02:30:58;;;;;;;39.08;17.20;;;;;;;10.68;98.25;96470.44;4947134;28;20124;-67
2021/11/02 02:33:29;;;;;;;35.33;16.35;;;;;;;10.71;97.69;96479.97;4947325;28;20051;-67
2021/11/02 02:35:57;;;;;;;42.90;16.35;;;;;;;10.62;97.66;96480.31;4945883;29;20059;-66
2021/11/02 02:38:25;;;;;;;40.45;17.35;;;;;;;10.63;98.05;96473.59;4947534;28;20065;-67
2021/11/02 02:40:54;;;;;;;34.03;15.60;;;;;;;10.61;97.94;96475.97;4945653;29;20055;-67
2021/11/02 02:43:22;;;;;;;31.70;15.10;;;;;;;10.31;98.22;96446.81;4945853;28;20056;-67
2021/11/02 02:45:53;;;;;;;39.03;16.35;;;;;;;10.29;97.54;96455.50;4945346;29;20070;-67
2021/11/02 02:48:22;;;;;;;37.47;15.77;;;;;;;10.58;95.94;96487.00;4947391;28;20055;-67
2021/11/02 02:50:51;;;;;;;39.55;18.50;;;;;;;10.55;96.68;96507.97;4946780;29;20066;-67
2021/11/02 02:53:20;;;;;;;42.53;20.63;;;;;;;10.49;98.14;96503.97;4945392;28;20454;-66
2021/11/02 02:55:48;;;;;;;39.03;19.15;;;;;;;10.48;98.73;96505.13;4945014;29;20074;-66
2021/11/02 02:58:15;;;;;;;42.03;18.27;;;;;;;10.56;98.74;96506.78;4945520;29;20054;-67
2021/11/02 03:00:43;;;;;;;45.25;19.20;;;;;;;10.52;98.78;96483.81;4945204;29;20809;-66
2021/11/02 03:03:12;;;;;;;40.10;18.35;;;;;;;10.19;98.25;96431.31;4946818;28;20058;-67
2021/11/02 03:05:39;;;;;;;41.67;17.98;;;;;;;10.67;98.58;96501.31;4946575;28;20055;-66
2021/11/02 03:08:07;;;;;;;46.53;20.38;;;;;;;10.42;98.75;96473.44;4945348;29;20055;-66
2021/11/02 03:10:36;;;;;;;44.47;18.35;;;;;;;10.62;98.11;96485.84;4946250;28;20085;-66
2021/11/02 03:13:08;;;;;;;48.35;21.15;;;;;;;10.55;98.43;96468.38;4958594;28;20328;-66
2021/11/02 03:15:55;;;;;;;51.92;22.73;;;;;;;10.07;98.06;96395.63;4965595;28;20066;-68
2021/11/02 03:49:00;;;;;;;37.25;16.35;;;;;;;10.24;94.82;96442.03;4965801;28;20054;-67
2021/11/02 03:51:47;;;;;;;35.30;16.13;;;;;;;10.09;95.01;96443.09;4964676;28;20057;-67
2021/11/02 04:22:25;;;;;;;30.23;13.77;;;;;;;9.28;96.96;96413.75;4965346;28;20051;-66
2021/11/02 05:57:50;;;;;;;50.47;21.77;;;;;;;9.01;94.54;96255.59;4967107;28;20054;-60
2021/11/02 06:00:27;;;;;;;102.10;39.30;;;;;;;9.77;93.70;96358.97;4966880;28;20050;-60
2021/11/02 06:30:59;;;;;;;33.95;14.63;;;;;;;9.79;98.70;96367.69;4966294;28;20086;-64
2021/11/02 06:44:57;;;;;;;31.70;16.17;;;;;;;10.66;91.66;96373.13;4954441;28;20141;-67
2021/11/02 06:50:32;;;;;;;33.70;15.13;;;;;;;11.02;86.87;96395.47;4968009;28;20135;-60
2021/11/02 06:59:07;;;;;;;28.45;12.43;;;;;;;11.11;86.30;96365.41;4964828;28;20425;-63
2021/11/02 07:21:05;;;;;;;32.78;13.60;;;;;;;11.84;81.60;96343.44;4962962;28;20050;-62
2021/11/02 07:23:59;;;;;;;30.50;15.13;;;;;;;11.99;82.25;96377.53;4958518;28;20086;-64
2021/11/02 08:46:08;;;;;;;30.83;14.65;;;;;;;12.11;89.83;96252.22;4967196;28;20050;-61
2021/11/02 08:48:35;;;;;;;36.17;14.75;;;;;;;12.27;90.65;96287.88;4964217;28;20797;-63
2021/11/02 08:51:03;;;;;;;36.25;17.10;;;;;;;12.52;91.26;96306.09;4961635;28;20081;-63
2021/11/02 08:53:31;;;;;;;35.97;15.50;;;;;;;12.77;87.21;96247.66;4965937;28;20058;-63
2021/11/02 08:55:58;;;;;;;32.13;15.02;;;;;;;13.25;83.06;96243.84;4966432;28;20078;-64
2021/11/02 08:58:26;;;;;;;31.40;13.88;;;;;;;13.76;81.22;96300.72;4967165;28;20042;-62
2021/11/02 09:00:54;;;;;;;32.67;13.80;;;;;;;13.89;80.59;96285.13;4965986;28;20049;-63
2021/11/02 09:03:31;;;;;;;28.55;14.50;;;;;;;13.58;78.03;96184.78;4967599;28;20051;-62
2021/11/02 09:06:05;;;;;;;26.55;12.85;;;;;;;14.50;75.67;96279.41;4965961;28;20797;-60
2021/11/02 09:08:39;;;;;;;28.63;12.90;;;;;;;14.22;75.83;96220.38;4967405;28;20329;-63
2021/11/02 09:11:06;;;;;;;33.72;14.15;;;;;;;14.90;73.05;96280.56;4966245;28;20093;-64
2021/11/02 09:13:35;;;;;;;23.48;11.75;;;;;;;14.98;71.25;96276.47;4965972;28;20051;-62
2021/11/02 09:16:02;;;;;;;54.53;21.30;;;;;;;15.03;70.88;96274.00;4967616;28;20066;-62
2021/11/02 09:18:29;;;;;;;33.35;13.52;;;;;;;14.72;70.07;96240.94;4966064;28;20437;-62
2021/11/02 09:20:57;;;;;;;20.33;11.48;;;;;;;13.89;74.98;96283.16;4966192;28;20058;-62
2021/11/02 09:23:28;;;;;;;30.60;13.65;;;;;;;13.83;75.20;96278.44;4967035;28;20118;-61
2021/11/02 09:25:56;;;;;;;23.15;12.13;;;;;;;14.18;73.34;96266.97;4966982;28;20806;-62
2021/11/02 09:28:25;;;;;;;24.33;11.65;;;;;;;13.87;74.27;96257.72;4956884;28;20051;-60
2021/11/02 09:30:53;;;;;;;33.45;13.93;;;;;;;13.84;74.80;96257.72;4948260;28;20083;-62
2021/11/02 09:33:21;;;;;;;28.30;13.55;;;;;;;14.16;73.80;96258.25;4962289;28;20051;-60
2021/11/02 09:36:18;;;;;;;25.35;13.88;;;;;;;14.12;74.44;96251.91;4947375;28;20135;-60
2021/11/02 09:39:11;;;;;;;25.80;11.68;;;;;;;13.70;76.18;96247.50;4946678;28;20063;-62
2021/11/02 09:42:03;;;;;;;31.77;14.02;;;;;;;13.70;78.90;96251.06;4946703;28;20435;-61
2021/11/02 09:45:12;;;;;;;24.58;12.07;;;;;;;13.57;78.36;96241.66;4947477;28;20063;-63
2021/11/02 09:48:04;;;;;;;25.13;12.43;;;;;;;13.09;80.83;96212.97;4945908;29;20055;-62
2021/11/02 09:51:06;;;;;;;27.02;12.63;;;;;;;12.76;86.41;96252.41;4946107;29;20054;-62
2021/11/02 09:53:45;;;;;;;25.83;12.32;;;;;;;12.89;86.33;96245.22;4947212;28;20538;-62
2021/11/02 09:56:30;;;;;;;29.42;13.73;;;;;;;12.81;86.96;96252.00;4947436;28;20047;-61
2021/11/02 09:59:16;;;;;;;29.30;13.77;;;;;;;12.78;89.18;96244.47;4947426;28;20063;-62
2021/11/02 10:01:56;;;;;;;30.98;15.05;;;;;;;12.57;92.16;96246.53;4947076;28;20062;-61
2021/11/02 10:04:49;;;;;;;33.17;15.23;;;;;;;12.40;93.52;96248.19;4947455;28;20125;-61
2021/11/02 10:07:24;;;;;;;36.45;16.45;;;;;;;12.22;98.64;96252.22;4946811;28;20050;-61
2021/11/02 10:09:55;;;;;;;32.90;14.98;;;;;;;12.19;98.67;96248.22;4947499;28;20615;-60
2021/11/02 10:12:44;;;;;;;33.53;15.20;;;;;;;12.04;97.51;96235.59;4946672;28;20063;-59
2021/11/02 10:15:26;;;;;;;33.22;14.88;;;;;;;11.96;100.00;96239.56;4948628;28;20047;-60
2021/11/02 10:18:46;;;;;;;32.78;14.82;;;;;;;10.53;100.00;96034.03;4945744;29;20055;-61
2021/11/02 10:21:43;;;;;;;32.80;15.43;;;;;;;11.77;100.00;96243.56;4934745;28;20538;-60
2021/11/02 10:24:46;;;;;;;37.97;16.63;;;;;;;11.74;100.00;96249.09;4946911;28;20325;-62
2021/11/02 10:27:32;;;;;;;37.90;17.02;;;;;;;11.25;100.00;96188.06;4948464;28;20412;-62
2021/11/02 10:30:29;;;;;;;34.75;16.52;;;;;;;11.05;100.00;96200.72;4966673;28;20147;-63
2021/11/02 10:33:09;;;;;;;40.10;17.80;;;;;;;11.41;100.00;96238.38;4960304;28;20055;-61
2021/11/02 10:35:53;;;;;;;33.90;16.02;;;;;;;11.45;100.00;96237.19;4963589;28;20050;-62
2021/11/02 10:38:47;;;;;;;36.97;18.42;;;;;;;11.53;100.00;96249.06;4965556;28;20154;-61
2021/11/02 10:41:20;;;;;;;47.55;19.17;;;;;;;11.24;100.00;96241.91;4969281;28;20050;-58
2021/11/02 10:44:19;;;;;;;53.80;20.83;;;;;;;11.33;100.00;96242.31;4984935;28;20133;-62
2021/11/02 10:46:55;;;;;;;44.65;19.30;;;;;;;11.38;100.00;96248.25;4985143;28;20053;-62
2021/11/02 10:49:48;;;;;;;51.42;20.85;;;;;;;10.43;100.00;96104.03;4984195;28;20497;-62
2021/11/02 10:52:18;;;;;;;42.63;18.92;;;;;;;11.33;100.00;96256.97;4969787;28;20050;-61
2021/11/02 10:54:48;;;;;;;38.28;18.10;;;;;;;11.15;100.00;96249.81;4964282;28;20498;-60
2021/11/02 10:57:21;;;;;;;46.13;18.85;;;;;;;11.19;100.00;96256.16;4965584;28;20058;-62
2021/11/02 10:59:49;;;;;;;35.53;15.75;;;;;;;11.22;100.00;96250.63;4965129;28;20054;-61
2021/11/02 11:02:29;;;;;;;39.33;16.65;;;;;;;9.09;100.00;95913.94;4964033;28;20069;-63
2021/11/02 11:05:01;;;;;;;36.15;16.35;;;;;;;10.28;100.00;96102.41;4968606;28;20055;-60
2021/11/02 11:07:34;;;;;;;31.10;15.65;;;;;;;11.12;100.00;96240.31;4974362;28;20058;-63
2021/11/02 11:10:03;;;;;;;31.87;14.50;;;;;;;11.35;100.00;96276.00;4983280;28;20054;-62
2021/11/02 11:12:34;;;;;;;35.95;15.55;;;;;;;11.36;100.00;96272.03;4978215;28;20046;-62
2021/11/02 11:15:04;;;;;;;35.08;15.48;;;;;;;10.39;100.00;96136.47;4964688;28;20047;-62
2021/11/02 11:17:33;;;;;;;38.50;17.35;;;;;;;11.34;100.00;96274.38;4963398;28;20050;-63
2021/11/02 11:20:13;;;;;;;42.45;18.08;;;;;;;11.43;100.00;96277.59;4965619;28;20050;-62
2021/11/02 11:22:42;;;;;;;35.72;17.50;;;;;;;11.22;100.00;96305.28;4964536;28;20456;-63
2021/11/02 11:25:12;;;;;;;36.60;16.48;;;;;;;11.23;100.00;96273.56;4965076;28;20054;-61
2021/11/02 11:27:57;;;;;;;36.72;15.95;;;;;;;11.15;100.00;96266.44;4960916;28;20047;-61
2021/11/02 11:30:30;;;;;;;46.40;19.38;;;;;;;11.14;100.00;96242.69;4964588;28;20149;-61
2021/11/02 11:32:58;;;;;;;38.13;17.75;;;;;;;11.06;100.00;96224.47;4963922;28;20047;-61
2021/11/02 11:35:25;;;;;;;37.95;19.08;;;;;;;11.06;100.00;96216.94;4963452;28;20081;-61
2021/11/02 11:37:53;;;;;;;47.25;19.20;;;;;;;11.03;100.00;96219.69;4964125;28;20057;-61
2021/11/02 11:40:23;;;;;;;37.83;19.27;;;;;;;11.29;100.00;96238.72;4962726;28;20065;-62
2021/11/02 11:42:54;;;;;;;44.20;18.88;;;;;;;11.23;100.00;96230.03;4963432;28;20057;-62
2021/11/02 11:45:24;;;;;;;41.97;18.40;;;;;;;11.31;100.00;96219.72;4964092;28;20485;-62
2021/11/02 11:48:04;;;;;;;38.17;16.55;;;;;;;11.25;100.00;96204.69;4951891;28;20053;-61
2021/11/02 11:50:32;;;;;;;48.95;20.52;;;;;;;10.73;100.00;96194.31;4943671;29;20069;-62
2021/11/02 11:53:03;;;;;;;48.17;20.02;;;;;;;11.01;100.00;96195.16;4948136;28;20046;-63
2021/11/02 11:55:42;;;;;;;39.83;18.33;;;;;;;10.91;100.00;96150.81;4963352;28;20053;-61
2021/11/02 11:58:24;;;;;;;40.45;18.05;;;;;;;11.09;100.00;96174.59;4961728;28;20051;-63
2021/11/02 12:01:11;;;;;;;38.08;17.00;;;;;;;11.04;100.00;96171.41;4964393;28;20047;-62
2021/11/02 12:03:57;;;;;;;49.33;18.90;;;;;;;10.14;100.00;96138.34;4962352;28;20055;-62
2021/11/02 12:06:58;;;;;;;45.70;19.17;;;;;;;9.49;100.00;96064.91;4964326;28;20055;-61
2021/11/02 12:09:26;;;;;;;46.47;19.30;;;;;;;9.97;100.00;96163.94;4944962;28;20055;-61
2021/11/02 12:12:04;;;;;;;43.53;18.85;;;;;;;10.41;100.00;96219.13;4959192;28;20054;-61
2021/11/02 12:14:33;;;;;;;41.38;17.02;;;;;;;10.40;100.00;96210.00;4960362;28;20043;-62
2021/11/02 12:17:03;;;;;;;63.17;25.92;;;;;;;10.23;100.00;96194.13;4964098;28;20046;-61
2021/11/02 12:19:35;;;;;;;60.72;23.25;;;;;;;10.61;100.00;96187.94;4962141;28;20050;-60
2021/11/02 12:22:06;;;;;;;53.22;21.52;;;;;;;10.65;100.00;96188.72;4962225;28;20505;-60
2021/11/02 12:24:35;;;;;;;43.85;19.35;;;;;;;10.21;100.00;96195.72;4948529;28;20047;-61
2021/11/02 12:27:21;;;;;;;50.90;19.23;;;;;;;10.62;100.00;96183.97;4951335;28;20050;-62
2021/11/02 12:29:49;;;;;;;38.15;16.63;;;;;;;10.53;100.00;96158.66;4965286;28;20047;-63
2021/11/02 12:32:23;;;;;;;50.97;20.33;;;;;;;10.82;100.00;96175.31;4943319;28;20065;-62
2021/11/02 12:35:04;;;;;;;;;;;;;;;10.75;100.00;96165.00;4945055;28;20055;-61
2021/11/02 12:37:35;;;;;;;46.67;19.00;;;;;;;10.60;100.00;96169.75;4943411;29;20029;-60
2021/11/02 12:40:26;;;;;;;43.13;18.27;;;;;;;10.43;100.00;96164.94;4948194;28;20505;-60
2021/11/02 12:43:27;;;;;;;43.90;17.20;;;;;;;10.51;100.00;96149.94;4963862;28;20054;-62
2021/11/02 12:45:56;;;;;;;43.22;19.13;;;;;;;10.38;100.00;96162.56;4964028;28;20066;-60
2021/11/02 12:48:24;;;;;;;37.83;17.73;;;;;;;10.38;100.00;96190.25;4962071;28;20058;-62
2021/11/02 12:51:21;;;;;;;48.38;19.60;;;;;;;10.79;100.00;96148.41;4944977;28;20079;-61
2021/11/02 12:53:52;;;;;;;56.28;21.73;;;;;;;10.88;100.00;96129.41;4943278;29;20099;-61
2021/11/02 12:56:20;;;;;;;43.75;17.65;;;;;;;11.63;100.00;96187.28;4945051;28;20070;-61
2021/11/02 12:58:51;;;;;;;37.83;16.23;;;;;;;11.62;100.00;96163.47;4944433;28;20461;-66
2021/11/02 13:01:36;;;;;;;33.55;15.57;;;;;;;10.64;100.00;95985.00;4956792;28;20085;-68
2021/11/02 13:04:06;;;;;;;36.58;15.95;;;;;;;10.69;100.00;96084.31;4964143;28;20065;-67
2021/11/02 13:06:42;;;;;;;35.22;16.95;;;;;;;11.09;100.00;96110.03;4963973;28;20047;-69
2021/11/02 13:09:20;;;;;;;49.88;21.63;;;;;;;11.82;100.00;96156.34;4948260;28;20047;-58
2021/11/02 13:11:59;;;;;;;35.30;16.35;;;;;;;11.26;100.00;96067.66;4955340;28;20573;-68
2021/11/02 13:14:36;;;;;;;36.88;17.02;;;;;;;11.51;100.00;96079.50;4955521;28;20444;-62
2021/11/02 13:17:07;;;;;;;35.47;16.70;;;;;;;11.35;100.00;96109.66;4964929;28;20050;-63
2021/11/02 13:19:39;;;;;;;32.33;14.50;;;;;;;10.48;100.00;96077.94;4967155;28;20050;-61
2021/11/02 13:22:28;;;;;;;34.70;16.67;;;;;;;11.38;100.00;96165.06;4967529;28;20055;-68
2021/11/02 13:25:02;;;;;;;37.28;16.67;;;;;;;10.56;100.00;96080.31;4962567;28;20062;-60
2021/11/02 13:27:45;;;;;;;38.40;16.90;;;;;;;11.39;100.00;96183.31;4967075;28;20055;-63
2021/11/02 13:30:24;;;;;;;36.75;16.05;;;;;;;10.33;100.00;96074.38;4966819;28;20054;-67
2021/11/02 13:33:17;;;;;;;36.22;16.33;;;;;;;11.43;100.00;96175.00;4966966;28;20077;-68
2021/11/02 13:35:57;;;;;;;35.78;16.75;;;;;;;11.35;100.00;96131.81;4967078;28;20113;-68
2021/11/02 13:38:24;;;;;;;41.15;18.05;;;;;;;11.76;100.00;96163.50;4966560;28;20598;-60
2021/11/02 13:40:55;;;;;;;38.50;17.40;;;;;;;12.03;100.00;96161.81;4966492;28;20145;-61
2021/11/02 13:43:26;;;;;;;39.38;16.42;;;;;;;12.05;100.00;96159.44;4966611;28;20562;-66
2021/11/02 13:45:54;;;;;;;31.80;15.43;;;;;;;11.78;100.00;96227.69;4965802;28;20073;-62
2021/11/02 13:48:22;;;;;;;30.83;15.07;;;;;;;12.18;100.00;96168.94;4965642;28;20062;-66
2021/11/02 13:50:49;;;;;;;33.88;16.67;;;;;;;12.30;100.00;96162.91;4963699;28;20054;-63
2021/11/02 13:53:15;;;;;;;39.53;18.92;;;;;;;12.06;100.00;96083.31;4965117;28;20046;-67
2021/11/02 13:55:42;;;;;;;34.03;16.30;;;;;;;12.68;100.00;96158.38;4965228;28;20685;-64
2021/11/02 13:58:09;;;;;;;32.75;16.42;;;;;;;12.78;100.00;96158.34;4962162;28;20046;-66
2021/11/02 14:00:36;;;;;;;33.53;16.45;;;;;;;12.72;100.00;96132.16;4965434;28;20054;-64
2021/11/02 14:03:08;;;;;;;37.83;16.52;;;;;;;12.98;99.20;96151.06;4966103;28;20529;-64
2021/11/02 14:05:37;;;;;;;37.40;17.10;;;;;;;12.80;100.00;96150.38;4965524;28;20073;-68
2021/11/02 14:08:06;;;;;;;31.42;15.88;;;;;;;12.12;100.00;96149.09;4955915;28;20139;-64
2021/11/02 14:10:33;;;;;;;35.15;15.32;;;;;;;11.77;100.00;96115.13;4965513;28;20509;-66
2021/11/02 14:13:00;;;;;;;39.22;16.48;;;;;;;12.01;100.00;96142.78;4963664;28;20088;-63
2021/11/02 14:15:29;;;;;;;39.45;17.90;;;;;;;12.17;100.00;96161.81;4965337;28;20452;-62
2021/11/02 14:18:00;;;;;;;37.20;16.33;;;;;;;11.96;100.00;96156.31;4965608;28;20082;-60
2021/11/02 14:20:32;;;;;;;34.58;16.45;;;;;;;12.09;100.00;96168.56;4957148;28;20050;-60
2021/11/02 14:23:01;;;;;;;37.50;15.82;;;;;;;12.16;100.00;96161.00;4965473;28;20547;-61
2021/11/02 14:25:38;;;;;;;32.47;15.40;;;;;;;11.33;100.00;96087.06;4976490;28;20077;-60
2021/11/02 14:28:06;;;;;;;36.58;16.38;;;;;;;11.50;100.00;96166.66;4953306;28;20533;-60
2021/11/02 14:30:33;;;;;;;38.15;16.92;;;;;;;11.44;100.00;96162.69;4964098;28;20055;-62
2021/11/02 14:33:17;;;;;;;37.60;16.25;;;;;;;11.01;100.00;96111.22;4965582;28;20078;-60
2021/11/02 14:36:04;;;;;;;36.72;15.98;;;;;;;11.05;100.00;96101.72;4966033;28;20090;-60
2021/11/02 14:38:47;;;;;;;38.92;17.77;;;;;;;11.31;100.00;96158.75;4965421;28;20484;-61
2021/11/02 14:41:34;;;;;;;40.35;16.58;;;;;;;11.32;100.00;96177.75;4946809;28;20051;-63
2021/11/02 14:44:23;;;;;;;41.17;18.05;;;;;;;11.06;100.00;96180.91;4945684;29;20059;-62
2021/11/02 14:47:02;;;;;;;33.05;15.98;;;;;;;10.77;100.00;96107.25;4946912;28;20062;-63
2021/11/02 14:49:29;;;;;;;41.38;18.48;;;;;;;11.24;100.00;96172.63;4945486;29;20189;-62
2021/11/02 14:51:57;;;;;;;34.88;16.10;;;;;;;11.28;100.00;96176.16;4946568;28;20065;-64
2021/11/02 14:54:31;;;;;;;40.42;16.23;;;;;;;11.35;100.00;96176.19;4945316;29;20055;-61
2021/11/02 14:57:18;;;;;;;34.60;15.18;;;;;;;11.17;100.00;96175.38;4945832;29;20459;-62
2021/11/02 14:59:55;;;;;;;38.05;17.45;;;;;;;10.93;100.00;96176.13;4945630;29;20258;-62
2021/11/02 15:02:40;;;;;;;43.20;18.85;;;;;;;11.21;100.00;96173.38;4946317;28;20059;-62
2021/11/02 15:05:18;;;;;;;40.88;18.48;;;;;;;11.38;100.00;96180.94;4946590;28;20075;-64
2021/11/02 15:07:47;;;;;;;40.10;18.85;;;;;;;11.48;100.00;96174.56;4946690;28;20066;-62
2021/11/02 15:10:17;;;;;;;41.58;16.75;;;;;;;11.47;100.00;96184.09;4944618;29;20084;-64
2021/11/02 15:12:49;;;;;;;37.65;17.55;;;;;;;11.33;100.00;96148.84;4946038;28;20058;-63
2021/11/02 15:15:16;;;;;;;46.92;19.55;;;;;;;11.66;100.00;96180.94;4956980;28;20061;-63
2021/11/02 15:17:43;;;;;;;34.00;17.88;;;;;;;11.66;100.00;96180.94;4966114;28;20120;-63
2021/11/02 15:20:24;;;;;;;48.05;19.60;;;;;;;11.67;100.00;96171.41;4964608;28;20067;-60
2021/11/02 15:22:54;;;;;;;43.78;19.73;;;;;;;11.69;100.00;96185.69;4965696;28;20058;-61
2021/11/02 15:25:21;;;;;;;41.35;19.30;;;;;;;11.72;100.00;96193.22;4965500;28;20094;-63
2021/11/02 15:27:58;;;;;;;44.35;20.40;;;;;;;11.75;100.00;96189.63;4965839;28;20054;-63
2021/11/02 15:30:25;;;;;;;44.45;19.55;;;;;;;11.48;100.00;96146.84;4965375;28;20083;-62
2021/11/02 15:32:52;;;;;;;39.63;19.85;;;;;;;11.79;100.00;96190.44;4965141;28;20065;-61
2021/11/02 15:35:22;;;;;;;43.20;19.95;;;;;;;11.31;100.00;96122.69;4964488;28;20485;-62
2021/11/02 15:38:07;;;;;;;41.58;20.05;;;;;;;11.35;100.00;96126.28;4965808;28;20050;-62
2021/11/02 15:40:41;;;;;;;35.30;16.20;;;;;;;11.79;100.00;96190.44;4965306;28;20051;-62
2021/11/02 15:43:11;;;;;;;41.90;19.52;;;;;;;11.55;100.00;96149.63;4965663;28;20062;-63
2021/11/02 15:45:44;;;;;;;42.58;20.13;;;;;;;11.81;100.00;96193.59;4965003;28;20082;-64
2021/11/02 15:48:26;;;;;;;46.22;21.52;;;;;;;11.87;100.00;96180.91;4964026;28;20058;-63
2021/11/02 15:50:55;;;;;;;54.15;24.05;;;;;;;11.29;100.00;96138.94;4964663;28;20055;-64
2021/11/02 15:53:28;;;;;;;52.85;23.65;;;;;;;11.63;100.00;96187.28;4965095;28;20058;-64
2021/11/02 15:56:00;;;;;;;59.65;23.65;;;;;;;11.68;100.00;96184.88;4963447;28;20399;-63
2021/11/02 15:58:28;;;;;;;53.40;22.42;;;;;;;11.78;100.00;96188.84;4963968;28;20059;-64
2021/11/02 16:00:55;;;;;;;47.55;20.95;;;;;;;11.73;100.00;96192.00;4964728;28;20598;-63
2021/11/02 16:03:31;;;;;;;42.28;17.88;;;;;;;9.25;100.00;95786.53;4963830;28;20055;-64
2021/11/02 16:05:58;;;;;;;56.35;29.38;;;;;;;11.84;100.00;96198.34;4963141;28;20058;-63
2021/11/02 16:08:25;;;;;;;48.63;21.73;;;;;;;11.30;100.00;96121.91;4964714;28;20133;-63
2021/11/02 16:11:01;;;;;;;46.25;20.95;;;;;;;11.79;100.00;96207.09;4964404;28;20051;-63
2021/11/02 16:13:29;;;;;;;47.55;20.98;;;;;;;11.67;100.00;96183.31;4965080;28;20160;-63
2021/11/02 16:16:00;;;;;;;39.10;19.35;;;;;;;11.58;100.00;96173.78;4964626;28;20636;-62
2021/11/02 16:18:32;;;;;;;35.22;17.30;;;;;;;11.59;100.00;96211.41;4964750;28;20050;-64
2021/11/02 16:21:02;;;;;;;38.88;16.63;;;;;;;11.68;100.00;96200.75;4964230;28;20058;-62
2021/11/02 16:23:38;;;;;;;34.40;15.10;;;;;;;11.72;100.00;96205.09;4964830;28;20050;-63
2021/11/02 16:26:16;;;;;;;42.67;18.02;;;;;;;11.60;100.00;96221.34;4964752;28;20065;-63
2021/11/02 16:28:43;;;;;;;36.53;17.00;;;;;;;11.29;100.00;96172.19;4963176;28;20473;-65
2021/11/02 16:31:22;;;;;;;38.22;17.52;;;;;;;11.54;100.00;96211.84;4964099;28;20050;-63
2021/11/02 16:33:50;;;;;;;32.90;15.63;;;;;;;11.58;100.00;96204.28;4964942;28;20430;-63
2021/11/02 16:36:28;;;;;;;38.08;18.15;;;;;;;11.27;100.00;96180.13;4962862;28;20051;-63
2021/11/02 16:38:57;;;;;;;33.38;15.13;;;;;;;11.41;100.00;96219.72;4964970;28;20054;-63
2021/11/02 16:41:28;;;;;;;39.53;16.17;;;;;;;11.36;100.00;96222.13;4964075;28;20514;-64
2021/11/02 16:43:57;;;;;;;39.75;17.48;;;;;;;11.33;100.00;96225.69;4964830;28;20114;-64